sensor_id;sensor_type;location;lat;lon;timestamp;P1;durP1;ratioP1;P2;durP2;ratioP2
7444;SDS011;3764;48.126;11.594;2024-02-26T00:02:01;5.15;;;3.72;;
7444;SDS011;3764;48.126;11.594;2024-02-26T00:04:28;4.47;;;3.78;;
7444;SDS011;3764;48.126;11.594;2024-02-26T00:06:55;4.22;;;3.45;;
7444;SDS011;3764;48.126;11.594;2024-02-26T00:09:24;4.72;;;3.47;;
7444;SDS011;3764;48.126;11.594;2024-02-26T00:11:52;5.82;;;3.63;;
7444;SDS011;3764;48.126;11.594;2024-02-26T00:14:20;4.35;;;3.03;;
7444;SDS011;3764;48.126;11.594;2024-02-26T00:16:47;4.40;;;3.35;;
7444;SDS011;3764;48.126;11.594;2024-02-26T00:19:15;3.53;;;3.22;;
7444;SDS011;3764;48.126;11.594;2024-02-26T00:21:42;5.82;;;4.10;;
7444;SDS011;3764;48.126;11.594;2024-02-26T00:24:09;5.45;;;3.75;;
7444;SDS011;3764;48.126;11.594;2024-02-26T00:26:38;3.47;;;3.15;;
7444;SDS011;3764;48.126;11.594;2024-02-26T00:29:05;4.50;;;3.20;;
7444;SDS011;3764;48.126;11.594;2024-02-26T00:31:32;5.63;;;3.30;;
7444;SDS011;3764;48.126;11.594;2024-02-26T00:34:00;5.53;;;3.40;;
7444;SDS011;3764;48.126;11.594;2024-02-26T00:36:27;3.33;;;3.00;;
7444;SDS011;3764;48.126;11.594;2024-02-26T00:38:54;5.95;;;3.30;;
7444;SDS011;3764;48.126;11.594;2024-02-26T00:41:21;4.07;;;3.13;;
7444;SDS011;3764;48.126;11.594;2024-02-26T00:43:50;3.55;;;3.22;;
7444;SDS011;3764;48.126;11.594;2024-02-26T00:46:17;5.40;;;3.70;;
7444;SDS011;3764;48.126;11.594;2024-02-26T00:48:44;3.45;;;3.08;;
7444;SDS011;3764;48.126;11.594;2024-02-26T00:51:11;3.75;;;2.72;;
7444;SDS011;3764;48.126;11.594;2024-02-26T00:53:38;3.47;;;3.10;;
7444;SDS011;3764;48.126;11.594;2024-02-26T00:56:05;3.45;;;2.80;;
7444;SDS011;3764;48.126;11.594;2024-02-26T00:58:33;4.03;;;3.38;;
7444;SDS011;3764;48.126;11.594;2024-02-26T01:01:01;5.63;;;4.35;;
7444;SDS011;3764;48.126;11.594;2024-02-26T01:03:29;3.75;;;3.35;;
7444;SDS011;3764;48.126;11.594;2024-02-26T01:05:56;4.50;;;3.72;;
7444;SDS011;3764;48.126;11.594;2024-02-26T01:08:23;4.30;;;3.40;;
7444;SDS011;3764;48.126;11.594;2024-02-26T01:10:51;5.28;;;3.60;;
7444;SDS011;3764;48.126;11.594;2024-02-26T01:13:18;4.18;;;3.55;;
7444;SDS011;3764;48.126;11.594;2024-02-26T01:15:45;4.63;;;3.70;;
7444;SDS011;3764;48.126;11.594;2024-02-26T01:18:13;4.38;;;3.40;;
7444;SDS011;3764;48.126;11.594;2024-02-26T01:20:41;3.72;;;3.33;;
7444;SDS011;3764;48.126;11.594;2024-02-26T01:23:08;3.67;;;3.30;;
7444;SDS011;3764;48.126;11.594;2024-02-26T01:25:35;5.10;;;3.40;;
7444;SDS011;3764;48.126;11.594;2024-02-26T01:28:02;4.03;;;3.20;;
7444;SDS011;3764;48.126;11.594;2024-02-26T01:30:30;4.45;;;3.15;;
7444;SDS011;3764;48.126;11.594;2024-02-26T01:32:58;3.42;;;3.10;;
7444;SDS011;3764;48.126;11.594;2024-02-26T01:35:26;4.00;;;3.53;;
7444;SDS011;3764;48.126;11.594;2024-02-26T01:37:53;3.15;;;2.85;;
7444;SDS011;3764;48.126;11.594;2024-02-26T01:40:20;5.10;;;3.40;;
7444;SDS011;3764;48.126;11.594;2024-02-26T01:42:48;3.35;;;2.83;;
7444;SDS011;3764;48.126;11.594;2024-02-26T01:45:15;3.42;;;3.10;;
7444;SDS011;3764;48.126;11.594;2024-02-26T01:47:47;3.97;;;3.58;;
7444;SDS011;3764;48.126;11.594;2024-02-26T01:50:16;4.85;;;3.60;;
7444;SDS011;3764;48.126;11.594;2024-02-26T01:52:45;4.03;;;3.58;;
7444;SDS011;3764;48.126;11.594;2024-02-26T01:55:14;3.70;;;3.30;;
7444;SDS011;3764;48.126;11.594;2024-02-26T01:57:42;4.35;;;3.45;;
7444;SDS011;3764;48.126;11.594;2024-02-26T02:00:10;4.07;;;3.47;;
7444;SDS011;3764;48.126;11.594;2024-02-26T02:02:38;3.95;;;3.20;;
7444;SDS011;3764;48.126;11.594;2024-02-26T02:05:07;3.92;;;3.60;;
7444;SDS011;3764;48.126;11.594;2024-02-26T02:07:36;4.95;;;3.28;;
7444;SDS011;3764;48.126;11.594;2024-02-26T02:10:06;7.80;;;4.50;;
7444;SDS011;3764;48.126;11.594;2024-02-26T02:12:35;5.85;;;3.58;;
7444;SDS011;3764;48.126;11.594;2024-02-26T02:15:05;3.15;;;2.40;;
7444;SDS011;3764;48.126;11.594;2024-02-26T02:17:33;4.78;;;3.28;;
7444;SDS011;3764;48.126;11.594;2024-02-26T02:20:01;3.13;;;2.78;;
7444;SDS011;3764;48.126;11.594;2024-02-26T02:22:30;3.70;;;3.03;;
7444;SDS011;3764;48.126;11.594;2024-02-26T02:24:58;3.40;;;3.13;;
7444;SDS011;3764;48.126;11.594;2024-02-26T02:27:26;3.30;;;2.88;;
7444;SDS011;3764;48.126;11.594;2024-02-26T02:29:53;3.88;;;3.00;;
7444;SDS011;3764;48.126;11.594;2024-02-26T02:32:21;3.30;;;2.97;;
7444;SDS011;3764;48.126;11.594;2024-02-26T02:34:49;4.95;;;3.00;;
7444;SDS011;3764;48.126;11.594;2024-02-26T02:37:16;3.42;;;3.03;;
7444;SDS011;3764;48.126;11.594;2024-02-26T02:39:45;5.07;;;3.40;;
7444;SDS011;3764;48.126;11.594;2024-02-26T02:42:12;4.40;;;3.28;;
7444;SDS011;3764;48.126;11.594;2024-02-26T02:44:39;2.70;;;2.50;;
7444;SDS011;3764;48.126;11.594;2024-02-26T02:47:06;4.90;;;3.30;;
7444;SDS011;3764;48.126;11.594;2024-02-26T02:49:33;3.95;;;2.80;;
7444;SDS011;3764;48.126;11.594;2024-02-26T02:52:01;4.28;;;3.20;;
7444;SDS011;3764;48.126;11.594;2024-02-26T02:54:28;4.88;;;3.30;;
7444;SDS011;3764;48.126;11.594;2024-02-26T02:56:56;3.50;;;3.15;;
7444;SDS011;3764;48.126;11.594;2024-02-26T02:59:24;5.18;;;3.25;;
7444;SDS011;3764;48.126;11.594;2024-02-26T03:01:52;4.00;;;2.80;;
7444;SDS011;3764;48.126;11.594;2024-02-26T03:04:19;4.57;;;2.97;;
7444;SDS011;3764;48.126;11.594;2024-02-26T03:06:46;3.67;;;3.00;;
7444;SDS011;3764;48.126;11.594;2024-02-26T03:09:13;3.72;;;3.30;;
7444;SDS011;3764;48.126;11.594;2024-02-26T03:11:40;3.72;;;2.50;;
7444;SDS011;3764;48.126;11.594;2024-02-26T03:14:09;3.35;;;2.85;;
7444;SDS011;3764;48.126;11.594;2024-02-26T03:16:37;4.70;;;2.90;;
7444;SDS011;3764;48.126;11.594;2024-02-26T03:19:04;4.40;;;2.90;;
7444;SDS011;3764;48.126;11.594;2024-02-26T03:21:31;3.08;;;2.60;;
7444;SDS011;3764;48.126;11.594;2024-02-26T03:23:58;2.80;;;2.60;;
7444;SDS011;3764;48.126;11.594;2024-02-26T03:26:25;3.35;;;2.75;;
7444;SDS011;3764;48.126;11.594;2024-02-26T03:28:52;2.95;;;2.38;;
7444;SDS011;3764;48.126;11.594;2024-02-26T03:31:21;3.20;;;2.45;;
7444;SDS011;3764;48.126;11.594;2024-02-26T03:33:48;2.90;;;2.45;;
7444;SDS011;3764;48.126;11.594;2024-02-26T03:36:15;2.50;;;2.05;;
7444;SDS011;3764;48.126;11.594;2024-02-26T03:38:42;2.92;;;2.55;;
7444;SDS011;3764;48.126;11.594;2024-02-26T03:41:10;2.83;;;2.40;;
7444;SDS011;3764;48.126;11.594;2024-02-26T03:43:37;3.05;;;2.75;;
7444;SDS011;3764;48.126;11.594;2024-02-26T03:46:06;3.45;;;2.35;;
7444;SDS011;3764;48.126;11.594;2024-02-26T03:48:35;3.20;;;2.65;;
7444;SDS011;3764;48.126;11.594;2024-02-26T03:51:02;2.50;;;2.30;;
7444;SDS011;3764;48.126;11.594;2024-02-26T03:53:30;2.75;;;2.55;;
7444;SDS011;3764;48.126;11.594;2024-02-26T03:55:57;2.00;;;1.90;;
7444;SDS011;3764;48.126;11.594;2024-02-26T03:58:24;2.75;;;2.28;;
7444;SDS011;3764;48.126;11.594;2024-02-26T04:00:51;3.90;;;2.30;;
7444;SDS011;3764;48.126;11.594;2024-02-26T04:03:18;5.53;;;2.50;;
7444;SDS011;3764;48.126;11.594;2024-02-26T04:05:47;3.10;;;2.80;;
7444;SDS011;3764;48.126;11.594;2024-02-26T04:08:14;3.28;;;2.55;;
7444;SDS011;3764;48.126;11.594;2024-02-26T04:10:41;3.97;;;2.10;;
7444;SDS011;3764;48.126;11.594;2024-02-26T04:13:09;2.40;;;2.20;;
7444;SDS011;3764;48.126;11.594;2024-02-26T04:15:36;2.15;;;1.75;;
7444;SDS011;3764;48.126;11.594;2024-02-26T04:18:03;3.67;;;2.53;;
7444;SDS011;3764;48.126;11.594;2024-02-26T04:20:30;4.18;;;2.13;;
7444;SDS011;3764;48.126;11.594;2024-02-26T04:22:59;3.97;;;2.08;;
7444;SDS011;3764;48.126;11.594;2024-02-26T04:25:26;2.22;;;2.00;;
7444;SDS011;3764;48.126;11.594;2024-02-26T04:27:53;2.50;;;1.95;;
7444;SDS011;3764;48.126;11.594;2024-02-26T04:30:21;2.55;;;2.28;;
7444;SDS011;3764;48.126;11.594;2024-02-26T04:32:48;2.45;;;2.03;;
7444;SDS011;3764;48.126;11.594;2024-02-26T04:35:15;2.28;;;2.08;;
7444;SDS011;3764;48.126;11.594;2024-02-26T04:37:42;2.70;;;2.15;;
7444;SDS011;3764;48.126;11.594;2024-02-26T04:40:11;3.33;;;2.50;;
7444;SDS011;3764;48.126;11.594;2024-02-26T04:42:39;2.20;;;2.00;;
7444;SDS011;3764;48.126;11.594;2024-02-26T04:45:06;3.08;;;2.50;;
7444;SDS011;3764;48.126;11.594;2024-02-26T04:47:34;3.47;;;2.17;;
7444;SDS011;3764;48.126;11.594;2024-02-26T04:50:01;2.58;;;1.90;;
7444;SDS011;3764;48.126;11.594;2024-02-26T04:52:28;1.70;;;1.60;;
7444;SDS011;3764;48.126;11.594;2024-02-26T04:54:55;1.95;;;1.65;;
7444;SDS011;3764;48.126;11.594;2024-02-26T04:57:26;3.28;;;1.85;;
7444;SDS011;3764;48.126;11.594;2024-02-26T04:59:53;2.42;;;1.77;;
7444;SDS011;3764;48.126;11.594;2024-02-26T05:02:20;2.65;;;2.03;;
7444;SDS011;3764;48.126;11.594;2024-02-26T05:04:48;2.17;;;1.67;;
7444;SDS011;3764;48.126;11.594;2024-02-26T05:07:15;2.13;;;1.88;;
7444;SDS011;3764;48.126;11.594;2024-02-26T05:09:43;7.15;;;2.30;;
7444;SDS011;3764;48.126;11.594;2024-02-26T05:12:11;2.55;;;2.15;;
7444;SDS011;3764;48.126;11.594;2024-02-26T05:14:39;2.38;;;1.55;;
7444;SDS011;3764;48.126;11.594;2024-02-26T05:17:06;2.60;;;1.80;;
7444;SDS011;3764;48.126;11.594;2024-02-26T05:19:33;2.10;;;1.73;;
7444;SDS011;3764;48.126;11.594;2024-02-26T05:22:01;5.40;;;1.98;;
7444;SDS011;3764;48.126;11.594;2024-02-26T05:24:28;4.30;;;1.83;;
7444;SDS011;3764;48.126;11.594;2024-02-26T05:26:55;2.15;;;1.85;;
7444;SDS011;3764;48.126;11.594;2024-02-26T05:29:22;2.25;;;2.03;;
7444;SDS011;3764;48.126;11.594;2024-02-26T05:31:51;1.73;;;1.60;;
7444;SDS011;3764;48.126;11.594;2024-02-26T05:34:19;1.95;;;1.67;;
7444;SDS011;3764;48.126;11.594;2024-02-26T05:36:47;2.40;;;1.63;;
7444;SDS011;3764;48.126;11.594;2024-02-26T05:39:14;5.20;;;2.20;;
7444;SDS011;3764;48.126;11.594;2024-02-26T05:41:41;2.42;;;2.05;;
7444;SDS011;3764;48.126;11.594;2024-02-26T05:44:08;1.88;;;1.60;;
7444;SDS011;3764;48.126;11.594;2024-02-26T05:46:35;3.42;;;2.00;;
7444;SDS011;3764;48.126;11.594;2024-02-26T05:49:04;3.95;;;2.40;;
7444;SDS011;3764;48.126;11.594;2024-02-26T05:51:32;5.88;;;1.98;;
7444;SDS011;3764;48.126;11.594;2024-02-26T05:53:59;2.00;;;1.80;;
7444;SDS011;3764;48.126;11.594;2024-02-26T05:56:26;2.60;;;1.80;;
7444;SDS011;3764;48.126;11.594;2024-02-26T05:58:54;4.95;;;2.47;;
7444;SDS011;3764;48.126;11.594;2024-02-26T06:01:21;2.75;;;1.98;;
7444;SDS011;3764;48.126;11.594;2024-02-26T06:03:49;2.35;;;2.00;;
7444;SDS011;3764;48.126;11.594;2024-02-26T06:06:18;1.73;;;1.63;;
7444;SDS011;3764;48.126;11.594;2024-02-26T06:08:47;6.63;;;1.88;;
7444;SDS011;3764;48.126;11.594;2024-02-26T06:11:14;2.30;;;2.10;;
7444;SDS011;3764;48.126;11.594;2024-02-26T06:13:41;4.35;;;2.00;;
7444;SDS011;3764;48.126;11.594;2024-02-26T06:16:08;4.03;;;2.05;;
7444;SDS011;3764;48.126;11.594;2024-02-26T06:18:35;2.13;;;1.90;;
7444;SDS011;3764;48.126;11.594;2024-02-26T06:21:03;2.05;;;1.60;;
7444;SDS011;3764;48.126;11.594;2024-02-26T06:23:32;2.47;;;2.13;;
7444;SDS011;3764;48.126;11.594;2024-02-26T06:25:59;2.72;;;1.90;;
7444;SDS011;3764;48.126;11.594;2024-02-26T06:28:26;4.13;;;2.50;;
7444;SDS011;3764;48.126;11.594;2024-02-26T06:30:55;1.75;;;1.33;;
7444;SDS011;3764;48.126;11.594;2024-02-26T06:33:22;1.75;;;1.65;;
7444;SDS011;3764;48.126;11.594;2024-02-26T06:35:49;2.05;;;1.63;;
7444;SDS011;3764;48.126;11.594;2024-02-26T06:38:17;2.17;;;1.88;;
7444;SDS011;3764;48.126;11.594;2024-02-26T06:40:45;2.15;;;1.90;;
7444;SDS011;3764;48.126;11.594;2024-02-26T06:43:13;2.55;;;2.10;;
7444;SDS011;3764;48.126;11.594;2024-02-26T06:45:40;2.22;;;1.88;;
7444;SDS011;3764;48.126;11.594;2024-02-26T06:48:07;3.42;;;1.80;;
7444;SDS011;3764;48.126;11.594;2024-02-26T06:50:34;3.80;;;2.72;;
7444;SDS011;3764;48.126;11.594;2024-02-26T06:53:01;3.67;;;2.22;;
7444;SDS011;3764;48.126;11.594;2024-02-26T06:55:29;6.78;;;2.40;;
7444;SDS011;3764;48.126;11.594;2024-02-26T06:57:57;6.55;;;2.13;;
7444;SDS011;3764;48.126;11.594;2024-02-26T07:00:25;3.25;;;2.00;;
7444;SDS011;3764;48.126;11.594;2024-02-26T07:02:52;2.67;;;1.52;;
7444;SDS011;3764;48.126;11.594;2024-02-26T07:05:19;4.30;;;1.98;;
7444;SDS011;3764;48.126;11.594;2024-02-26T07:07:46;7.45;;;2.20;;
7444;SDS011;3764;48.126;11.594;2024-02-26T07:10:13;6.07;;;2.05;;
7444;SDS011;3764;48.126;11.594;2024-02-26T07:12:40;4.63;;;2.00;;
7444;SDS011;3764;48.126;11.594;2024-02-26T07:15:09;3.58;;;2.33;;
7444;SDS011;3764;48.126;11.594;2024-02-26T07:17:37;4.20;;;2.35;;
7444;SDS011;3764;48.126;11.594;2024-02-26T07:20:07;5.60;;;1.92;;
7444;SDS011;3764;48.126;11.594;2024-02-26T07:22:35;5.90;;;2.25;;
7444;SDS011;3764;48.126;11.594;2024-02-26T07:25:02;2.33;;;1.83;;
7444;SDS011;3764;48.126;11.594;2024-02-26T07:27:33;2.42;;;2.22;;
7444;SDS011;3764;48.126;11.594;2024-02-26T07:30:00;6.03;;;1.70;;
7444;SDS011;3764;48.126;11.594;2024-02-26T07:32:28;2.92;;;1.77;;
7444;SDS011;3764;48.126;11.594;2024-02-26T07:34:54;4.50;;;2.35;;
7444;SDS011;3764;48.126;11.594;2024-02-26T07:37:22;3.35;;;2.20;;
7444;SDS011;3764;48.126;11.594;2024-02-26T07:39:49;6.65;;;2.28;;
7444;SDS011;3764;48.126;11.594;2024-02-26T07:42:16;4.60;;;2.45;;
7444;SDS011;3764;48.126;11.594;2024-02-26T07:44:43;4.45;;;2.47;;
7444;SDS011;3764;48.126;11.594;2024-02-26T07:47:10;9.65;;;2.40;;
7444;SDS011;3764;48.126;11.594;2024-02-26T07:49:39;2.30;;;1.65;;
7444;SDS011;3764;48.126;11.594;2024-02-26T07:52:07;3.35;;;1.85;;
7444;SDS011;3764;48.126;11.594;2024-02-26T07:54:34;7.40;;;2.33;;
7444;SDS011;3764;48.126;11.594;2024-02-26T07:57:01;3.58;;;2.20;;
7444;SDS011;3764;48.126;11.594;2024-02-26T07:59:30;4.05;;;2.20;;
7444;SDS011;3764;48.126;11.594;2024-02-26T08:01:58;11.18;;;2.80;;
7444;SDS011;3764;48.126;11.594;2024-02-26T08:04:28;3.45;;;2.00;;
7444;SDS011;3764;48.126;11.594;2024-02-26T08:06:57;3.13;;;2.13;;
7444;SDS011;3764;48.126;11.594;2024-02-26T08:09:24;3.85;;;2.30;;
7444;SDS011;3764;48.126;11.594;2024-02-26T08:11:51;3.33;;;2.00;;
7444;SDS011;3764;48.126;11.594;2024-02-26T08:14:18;2.53;;;2.20;;
7444;SDS011;3764;48.126;11.594;2024-02-26T08:16:46;2.95;;;2.35;;
7444;SDS011;3764;48.126;11.594;2024-02-26T08:19:14;2.70;;;1.85;;
7444;SDS011;3764;48.126;11.594;2024-02-26T08:21:42;3.67;;;2.38;;
7444;SDS011;3764;48.126;11.594;2024-02-26T08:24:11;9.00;;;2.60;;
7444;SDS011;3764;48.126;11.594;2024-02-26T08:26:38;4.72;;;2.70;;
7444;SDS011;3764;48.126;11.594;2024-02-26T08:29:05;4.35;;;2.60;;
7444;SDS011;3764;48.126;11.594;2024-02-26T08:31:33;9.57;;;2.90;;
7444;SDS011;3764;48.126;11.594;2024-02-26T08:34:02;6.35;;;2.97;;
7444;SDS011;3764;48.126;11.594;2024-02-26T08:36:30;4.78;;;2.83;;
7444;SDS011;3764;48.126;11.594;2024-02-26T08:38:57;3.72;;;2.75;;
7444;SDS011;3764;48.126;11.594;2024-02-26T08:41:26;4.85;;;3.90;;
7444;SDS011;3764;48.126;11.594;2024-02-26T08:43:54;6.00;;;2.80;;
7444;SDS011;3764;48.126;11.594;2024-02-26T08:46:21;7.88;;;3.10;;
7444;SDS011;3764;48.126;11.594;2024-02-26T08:48:48;5.03;;;2.80;;
7444;SDS011;3764;48.126;11.594;2024-02-26T08:51:16;4.10;;;2.70;;
7444;SDS011;3764;48.126;11.594;2024-02-26T08:53:43;3.03;;;2.40;;
7444;SDS011;3764;48.126;11.594;2024-02-26T08:56:11;9.73;;;3.17;;
7444;SDS011;3764;48.126;11.594;2024-02-26T08:58:43;6.40;;;3.97;;
7444;SDS011;3764;48.126;11.594;2024-02-26T09:01:11;5.00;;;3.00;;
7444;SDS011;3764;48.126;11.594;2024-02-26T09:03:38;19.45;;;3.10;;
7444;SDS011;3764;48.126;11.594;2024-02-26T09:06:06;4.97;;;2.70;;
7444;SDS011;3764;48.126;11.594;2024-02-26T09:08:33;4.22;;;2.63;;
7444;SDS011;3764;48.126;11.594;2024-02-26T09:11:02;8.38;;;2.67;;
7444;SDS011;3764;48.126;11.594;2024-02-26T09:13:29;8.77;;;3.30;;
7444;SDS011;3764;48.126;11.594;2024-02-26T09:15:58;2.85;;;2.30;;
7444;SDS011;3764;48.126;11.594;2024-02-26T09:18:25;3.05;;;2.63;;
7444;SDS011;3764;48.126;11.594;2024-02-26T09:20:54;3.58;;;2.72;;
7444;SDS011;3764;48.126;11.594;2024-02-26T09:23:21;2.65;;;2.38;;
7444;SDS011;3764;48.126;11.594;2024-02-26T09:25:48;2.47;;;2.17;;
7444;SDS011;3764;48.126;11.594;2024-02-26T09:28:15;4.38;;;2.35;;
7444;SDS011;3764;48.126;11.594;2024-02-26T09:30:42;5.90;;;3.70;;
7444;SDS011;3764;48.126;11.594;2024-02-26T09:33:11;5.15;;;3.72;;
7444;SDS011;3764;48.126;11.594;2024-02-26T09:35:40;5.72;;;2.80;;
7444;SDS011;3764;48.126;11.594;2024-02-26T09:38:07;7.25;;;3.35;;
7444;SDS011;3764;48.126;11.594;2024-02-26T09:40:39;6.15;;;3.47;;
7444;SDS011;3764;48.126;11.594;2024-02-26T09:43:08;4.10;;;2.50;;
7444;SDS011;3764;48.126;11.594;2024-02-26T09:45:40;5.85;;;2.90;;
7444;SDS011;3764;48.126;11.594;2024-02-26T09:48:13;7.38;;;3.60;;
7444;SDS011;3764;48.126;11.594;2024-02-26T09:50:43;4.82;;;3.35;;
7444;SDS011;3764;48.126;11.594;2024-02-26T09:53:11;5.95;;;2.97;;
7444;SDS011;3764;48.126;11.594;2024-02-26T09:55:40;9.73;;;3.08;;
7444;SDS011;3764;48.126;11.594;2024-02-26T09:58:08;3.65;;;3.03;;
7444;SDS011;3764;48.126;11.594;2024-02-26T10:00:42;3.88;;;2.33;;
7444;SDS011;3764;48.126;11.594;2024-02-26T10:03:14;5.20;;;3.05;;
7444;SDS011;3764;48.126;11.594;2024-02-26T10:05:42;6.30;;;2.78;;
7444;SDS011;3764;48.126;11.594;2024-02-26T10:08:11;5.85;;;2.53;;
7444;SDS011;3764;48.126;11.594;2024-02-26T10:10:40;4.40;;;2.40;;
7444;SDS011;3764;48.126;11.594;2024-02-26T10:13:08;2.20;;;1.90;;
7444;SDS011;3764;48.126;11.594;2024-02-26T10:15:37;2.17;;;1.90;;
7444;SDS011;3764;48.126;11.594;2024-02-26T10:18:04;2.40;;;2.20;;
7444;SDS011;3764;48.126;11.594;2024-02-26T10:20:33;4.20;;;2.42;;
7444;SDS011;3764;48.126;11.594;2024-02-26T10:23:02;3.35;;;2.03;;
7444;SDS011;3764;48.126;11.594;2024-02-26T10:25:30;2.50;;;2.30;;
7444;SDS011;3764;48.126;11.594;2024-02-26T10:27:59;2.50;;;2.13;;
7444;SDS011;3764;48.126;11.594;2024-02-26T10:30:28;3.70;;;2.33;;
7444;SDS011;3764;48.126;11.594;2024-02-26T10:32:55;3.97;;;3.05;;
7444;SDS011;3764;48.126;11.594;2024-02-26T10:35:23;3.22;;;2.25;;
7444;SDS011;3764;48.126;11.594;2024-02-26T10:37:52;4.05;;;2.50;;
7444;SDS011;3764;48.126;11.594;2024-02-26T10:40:20;2.78;;;2.08;;
7444;SDS011;3764;48.126;11.594;2024-02-26T10:42:47;3.50;;;2.40;;
7444;SDS011;3764;48.126;11.594;2024-02-26T10:45:14;3.67;;;2.20;;
7444;SDS011;3764;48.126;11.594;2024-02-26T10:47:41;2.88;;;1.70;;
7444;SDS011;3764;48.126;11.594;2024-02-26T10:50:09;2.50;;;2.30;;
7444;SDS011;3764;48.126;11.594;2024-02-26T10:52:39;2.55;;;2.10;;
7444;SDS011;3764;48.126;11.594;2024-02-26T10:55:12;4.32;;;2.30;;
7444;SDS011;3764;48.126;11.594;2024-02-26T10:57:43;3.72;;;1.65;;
7444;SDS011;3764;48.126;11.594;2024-02-26T11:00:13;2.33;;;1.77;;
7444;SDS011;3764;48.126;11.594;2024-02-26T11:02:41;1.95;;;1.75;;
7444;SDS011;3764;48.126;11.594;2024-02-26T11:05:10;2.65;;;1.60;;
7444;SDS011;3764;48.126;11.594;2024-02-26T11:07:38;1.73;;;1.10;;
7444;SDS011;3764;48.126;11.594;2024-02-26T11:10:07;2.25;;;1.58;;
7444;SDS011;3764;48.126;11.594;2024-02-26T11:12:37;2.75;;;1.45;;
7444;SDS011;3764;48.126;11.594;2024-02-26T11:15:06;1.70;;;1.60;;
7444;SDS011;3764;48.126;11.594;2024-02-26T11:17:35;1.88;;;1.50;;
7444;SDS011;3764;48.126;11.594;2024-02-26T11:20:05;3.58;;;2.22;;
7444;SDS011;3764;48.126;11.594;2024-02-26T11:22:36;2.88;;;1.65;;
7444;SDS011;3764;48.126;11.594;2024-02-26T11:25:03;2.33;;;1.90;;
7444;SDS011;3764;48.126;11.594;2024-02-26T11:27:37;2.15;;;1.95;;
7444;SDS011;3764;48.126;11.594;2024-02-26T11:30:08;3.70;;;1.40;;
7444;SDS011;3764;48.126;11.594;2024-02-26T11:32:37;2.65;;;1.20;;
7444;SDS011;3764;48.126;11.594;2024-02-26T11:35:05;1.67;;;1.40;;
7444;SDS011;3764;48.126;11.594;2024-02-26T11:37:35;1.40;;;1.10;;
7444;SDS011;3764;48.126;11.594;2024-02-26T11:40:03;1.38;;;1.02;;
7444;SDS011;3764;48.126;11.594;2024-02-26T11:42:33;1.63;;;1.52;;
7444;SDS011;3764;48.126;11.594;2024-02-26T11:45:00;1.77;;;1.38;;
7444;SDS011;3764;48.126;11.594;2024-02-26T11:47:27;3.08;;;1.20;;
7444;SDS011;3764;48.126;11.594;2024-02-26T11:49:55;1.52;;;1.20;;
7444;SDS011;3764;48.126;11.594;2024-02-26T11:52:22;1.70;;;1.13;;
7444;SDS011;3764;48.126;11.594;2024-02-26T11:54:49;1.75;;;1.10;;
7444;SDS011;3764;48.126;11.594;2024-02-26T11:57:22;5.30;;;1.77;;
7444;SDS011;3764;48.126;11.594;2024-02-26T11:59:50;1.40;;;1.00;;
7444;SDS011;3764;48.126;11.594;2024-02-26T12:05:08;1.40;;;1.10;;
7444;SDS011;3764;48.126;11.594;2024-02-26T12:07:39;2.45;;;1.65;;
7444;SDS011;3764;48.126;11.594;2024-02-26T12:10:15;4.65;;;1.30;;
7444;SDS011;3764;48.126;11.594;2024-02-26T12:12:47;1.95;;;1.30;;
7444;SDS011;3764;48.126;11.594;2024-02-26T12:15:17;2.03;;;1.23;;
7444;SDS011;3764;48.126;11.594;2024-02-26T12:17:48;3.35;;;2.17;;
7444;SDS011;3764;48.126;11.594;2024-02-26T12:20:16;2.45;;;1.60;;
7444;SDS011;3764;48.126;11.594;2024-02-26T12:22:45;3.22;;;1.85;;
7444;SDS011;3764;48.126;11.594;2024-02-26T12:25:13;1.90;;;1.40;;
7444;SDS011;3764;48.126;11.594;2024-02-26T12:27:40;3.03;;;1.77;;
7444;SDS011;3764;48.126;11.594;2024-02-26T12:30:08;2.13;;;1.40;;
7444;SDS011;3764;48.126;11.594;2024-02-26T12:32:37;9.00;;;1.33;;
7444;SDS011;3764;48.126;11.594;2024-02-26T12:35:05;4.05;;;1.40;;
7444;SDS011;3764;48.126;11.594;2024-02-26T12:37:33;2.50;;;1.10;;
7444;SDS011;3764;48.126;11.594;2024-02-26T12:40:03;2.00;;;1.58;;
7444;SDS011;3764;48.126;11.594;2024-02-26T12:42:33;1.40;;;1.00;;
7444;SDS011;3764;48.126;11.594;2024-02-26T12:45:05;1.42;;;1.10;;
7444;SDS011;3764;48.126;11.594;2024-02-26T12:47:39;1.85;;;1.48;;
7444;SDS011;3764;48.126;11.594;2024-02-26T12:50:07;2.60;;;1.30;;
7444;SDS011;3764;48.126;11.594;2024-02-26T12:52:36;2.38;;;1.63;;
7444;SDS011;3764;48.126;11.594;2024-02-26T12:55:06;2.63;;;1.30;;
7444;SDS011;3764;48.126;11.594;2024-02-26T12:57:34;1.45;;;1.08;;
7444;SDS011;3764;48.126;11.594;2024-02-26T13:00:03;2.05;;;1.42;;
7444;SDS011;3764;48.126;11.594;2024-02-26T13:02:34;3.63;;;1.90;;
7444;SDS011;3764;48.126;11.594;2024-02-26T13:05:05;4.30;;;1.90;;
7444;SDS011;3764;48.126;11.594;2024-02-26T13:07:34;2.38;;;1.63;;
7444;SDS011;3764;48.126;11.594;2024-02-26T13:10:07;2.30;;;1.73;;
7444;SDS011;3764;48.126;11.594;2024-02-26T13:12:37;4.35;;;1.90;;
7444;SDS011;3764;48.126;11.594;2024-02-26T13:15:04;2.22;;;1.73;;
7444;SDS011;3764;48.126;11.594;2024-02-26T13:17:32;3.35;;;1.88;;
7444;SDS011;3764;48.126;11.594;2024-02-26T13:19:59;5.10;;;2.42;;
7444;SDS011;3764;48.126;11.594;2024-02-26T13:22:28;2.95;;;2.38;;
7444;SDS011;3764;48.126;11.594;2024-02-26T13:24:58;2.47;;;2.05;;
7444;SDS011;3764;48.126;11.594;2024-02-26T13:27:28;2.55;;;1.98;;
7444;SDS011;3764;48.126;11.594;2024-02-26T13:30:02;2.38;;;1.92;;
7444;SDS011;3764;48.126;11.594;2024-02-26T13:32:32;3.60;;;2.20;;
7444;SDS011;3764;48.126;11.594;2024-02-26T13:35:04;2.50;;;2.30;;
7444;SDS011;3764;48.126;11.594;2024-02-26T13:37:34;3.53;;;2.95;;
7444;SDS011;3764;48.126;11.594;2024-02-26T13:40:04;3.80;;;2.88;;
7444;SDS011;3764;48.126;11.594;2024-02-26T13:42:32;8.43;;;2.70;;
7444;SDS011;3764;48.126;11.594;2024-02-26T13:44:59;3.40;;;2.35;;
7444;SDS011;3764;48.126;11.594;2024-02-26T13:47:27;2.30;;;2.10;;
7444;SDS011;3764;48.126;11.594;2024-02-26T13:49:54;4.00;;;2.30;;
7444;SDS011;3764;48.126;11.594;2024-02-26T13:52:22;1.90;;;1.70;;
7444;SDS011;3764;48.126;11.594;2024-02-26T13:54:50;2.88;;;2.20;;
7444;SDS011;3764;48.126;11.594;2024-02-26T13:57:18;2.30;;;1.90;;
7444;SDS011;3764;48.126;11.594;2024-02-26T13:59:45;2.00;;;1.80;;
7444;SDS011;3764;48.126;11.594;2024-02-26T14:02:13;2.97;;;2.00;;
7444;SDS011;3764;48.126;11.594;2024-02-26T14:04:40;3.03;;;1.88;;
7444;SDS011;3764;48.126;11.594;2024-02-26T14:07:07;2.03;;;1.83;;
7444;SDS011;3764;48.126;11.594;2024-02-26T14:09:37;2.45;;;1.60;;
7444;SDS011;3764;48.126;11.594;2024-02-26T14:12:06;5.20;;;2.10;;
7444;SDS011;3764;48.126;11.594;2024-02-26T14:14:33;2.88;;;2.30;;
7444;SDS011;3764;48.126;11.594;2024-02-26T14:17:03;2.80;;;2.42;;
7444;SDS011;3764;48.126;11.594;2024-02-26T14:19:31;3.53;;;2.50;;
7444;SDS011;3764;48.126;11.594;2024-02-26T14:21:58;3.60;;;2.25;;
7444;SDS011;3764;48.126;11.594;2024-02-26T14:24:25;3.42;;;2.60;;
7444;SDS011;3764;48.126;11.594;2024-02-26T14:26:52;4.75;;;2.40;;
7444;SDS011;3764;48.126;11.594;2024-02-26T14:29:21;3.90;;;2.45;;
7444;SDS011;3764;48.126;11.594;2024-02-26T14:31:48;3.75;;;3.33;;
7444;SDS011;3764;48.126;11.594;2024-02-26T14:34:15;3.35;;;2.75;;
7444;SDS011;3764;48.126;11.594;2024-02-26T14:36:44;3.70;;;2.85;;
7444;SDS011;3764;48.126;11.594;2024-02-26T14:39:12;5.03;;;3.13;;
7444;SDS011;3764;48.126;11.594;2024-02-26T14:41:39;3.97;;;2.78;;
7444;SDS011;3764;48.126;11.594;2024-02-26T14:44:06;5.65;;;2.45;;
7444;SDS011;3764;48.126;11.594;2024-02-26T14:46:36;2.67;;;2.30;;
7444;SDS011;3764;48.126;11.594;2024-02-26T14:49:03;4.43;;;3.00;;
7444;SDS011;3764;48.126;11.594;2024-02-26T14:51:30;3.03;;;2.50;;
7444;SDS011;3764;48.126;11.594;2024-02-26T14:53:58;4.03;;;3.10;;
7444;SDS011;3764;48.126;11.594;2024-02-26T14:56:27;3.42;;;2.92;;
7444;SDS011;3764;48.126;11.594;2024-02-26T14:58:54;3.53;;;3.13;;
7444;SDS011;3764;48.126;11.594;2024-02-26T15:01:22;2.42;;;1.90;;
7444;SDS011;3764;48.126;11.594;2024-02-26T15:03:51;4.15;;;2.95;;
7444;SDS011;3764;48.126;11.594;2024-02-26T15:06:18;3.65;;;2.63;;
7444;SDS011;3764;48.126;11.594;2024-02-26T15:08:46;3.08;;;2.28;;